createdAt,value
2023-05-15T00:00:49.573Z,21.34
2023-05-15T00:03:16.361Z,21.31
2023-05-15T00:05:43.167Z,21.23
2023-05-15T00:08:09.723Z,21.15
2023-05-15T00:10:36.316Z,21.16
2023-05-15T00:13:02.840Z,21.09
2023-05-15T00:15:29.609Z,21.07
2023-05-15T00:17:56.194Z,21.04
2023-05-15T00:20:22.755Z,21.00
2023-05-15T00:22:49.374Z,20.99
2023-05-15T00:25:15.910Z,20.97
2023-05-15T00:27:42.441Z,20.87
2023-05-15T00:30:09.410Z,20.85
2023-05-15T00:32:35.963Z,20.79
2023-05-15T00:35:02.488Z,20.70
2023-05-15T00:37:31.067Z,20.65
2023-05-15T00:39:57.636Z,20.57
2023-05-15T00:42:25.116Z,20.55
2023-05-15T00:44:52.694Z,20.55
2023-05-15T00:47:21.112Z,20.51
2023-05-15T00:49:47.849Z,20.39
2023-05-15T00:52:14.894Z,20.31
2023-05-15T00:54:42.086Z,20.23
2023-05-15T00:57:09.522Z,20.07
2023-05-15T00:59:36.553Z,19.98
2023-05-15T01:02:04.049Z,19.94
2023-05-15T01:04:31.284Z,19.95
2023-05-15T01:06:57.962Z,19.96
2023-05-15T01:09:25.636Z,20.00
2023-05-15T01:11:54.200Z,20.00
2023-05-15T01:14:20.804Z,19.89
2023-05-15T01:16:47.454Z,19.87
2023-05-15T01:19:14.213Z,19.86
2023-05-15T01:21:57.882Z,19.94
2023-05-15T01:24:55.770Z,19.97
2023-05-15T01:27:37.413Z,19.99
2023-05-15T01:30:25.247Z,19.96
2023-05-15T01:33:26.086Z,19.91
2023-05-15T01:36:00.131Z,19.76
2023-05-15T01:38:35.641Z,19.65
2023-05-15T01:41:06.783Z,19.62
2023-05-15T01:43:33.240Z,20.15
2023-05-15T01:46:01.359Z,19.55
2023-05-15T01:48:28.689Z,19.44
2023-05-15T01:50:58.322Z,19.38
2023-05-15T01:53:25.437Z,19.27
2023-05-15T01:55:52.473Z,19.23
2023-05-15T01:58:19.127Z,19.13
2023-05-15T02:00:46.703Z,19.13
2023-05-15T02:03:13.768Z,19.12
2023-05-15T02:05:41.291Z,19.13
2023-05-15T02:08:07.839Z,19.10
2023-05-15T02:10:35.126Z,19.10
2023-05-15T02:13:01.990Z,19.09
2023-05-15T02:15:29.213Z,19.06
2023-05-15T02:17:56.167Z,19.02
2023-05-15T02:20:22.682Z,18.95
2023-05-15T02:22:49.219Z,18.91
2023-05-15T02:25:16.068Z,18.86
2023-05-15T02:27:51.600Z,18.95
2023-05-15T02:30:56.147Z,19.03
2023-05-15T02:33:35.923Z,18.88
2023-05-15T02:36:05.682Z,18.81
2023-05-15T02:38:46.958Z,18.89
2023-05-15T02:41:13.596Z,19.23
2023-05-15T02:43:40.992Z,18.71
2023-05-15T02:46:08.120Z,18.57
2023-05-15T02:48:35.674Z,18.58
2023-05-15T02:51:02.587Z,18.57
2023-05-15T02:53:29.786Z,18.61
2023-05-15T02:55:56.473Z,18.63
2023-05-15T02:58:23.096Z,18.60
2023-05-15T03:00:49.720Z,18.60
2023-05-15T03:03:16.439Z,18.58
2023-05-15T03:05:43.006Z,18.61
2023-05-15T03:08:09.568Z,18.61
2023-05-15T03:10:36.111Z,18.64
2023-05-15T03:13:02.733Z,18.64
2023-05-15T03:15:29.249Z,18.55
2023-05-15T03:17:55.801Z,18.50
2023-05-15T03:20:22.423Z,18.48
2023-05-15T03:22:49.027Z,18.48
2023-05-15T03:25:15.800Z,18.45
2023-05-15T03:27:42.292Z,18.44
2023-05-15T03:30:09.277Z,18.48
2023-05-15T03:32:35.805Z,18.54
2023-05-15T03:35:02.418Z,18.61
2023-05-15T03:37:29.005Z,18.63
2023-05-15T03:39:55.709Z,18.64
2023-05-15T03:42:23.690Z,18.60
2023-05-15T03:44:50.809Z,18.58
2023-05-15T03:47:18.063Z,18.59
2023-05-15T03:49:45.928Z,18.60
2023-05-15T03:52:12.613Z,18.58
2023-05-15T03:54:39.122Z,18.60
2023-05-15T03:57:06.504Z,18.59
2023-05-15T03:59:33.009Z,18.63
2023-05-15T04:02:04.697Z,18.64
2023-05-15T04:04:31.766Z,18.64
2023-05-15T04:06:58.298Z,18.64
2023-05-15T04:09:24.788Z,18.69
2023-05-15T04:11:51.316Z,18.67
2023-05-15T04:14:17.825Z,18.70
2023-05-15T04:16:44.552Z,18.78
2023-05-15T04:19:11.215Z,18.85
2023-05-15T04:21:37.823Z,18.86
2023-05-15T04:24:04.428Z,18.91
2023-05-15T04:26:31.557Z,18.95
2023-05-15T04:29:03.999Z,18.99
2023-05-15T04:31:31.834Z,19.07
2023-05-15T04:33:58.666Z,19.11
2023-05-15T04:36:25.448Z,19.15
2023-05-15T04:38:51.968Z,19.23
2023-05-15T04:41:18.692Z,19.34
2023-05-15T04:43:45.545Z,19.42
2023-05-15T04:46:12.325Z,19.47
2023-05-15T04:48:38.860Z,19.52
2023-05-15T04:51:05.414Z,19.59
2023-05-15T04:53:31.942Z,19.72
2023-05-15T04:55:58.443Z,19.83
2023-05-15T04:58:24.967Z,19.91
2023-05-15T05:00:51.467Z,20.03
2023-05-15T05:03:18.118Z,20.09
2023-05-15T05:05:44.657Z,20.16
2023-05-15T05:08:11.227Z,20.27
2023-05-15T05:10:37.740Z,20.37
2023-05-15T05:13:04.273Z,20.48
2023-05-15T05:15:30.795Z,20.62
2023-05-15T05:17:57.366Z,20.72
2023-05-15T05:20:23.916Z,20.84
2023-05-15T05:22:50.461Z,20.90
2023-05-15T05:25:17.056Z,21.00
2023-05-15T05:27:43.615Z,21.14
2023-05-15T05:30:10.497Z,21.28
2023-05-15T05:32:37.118Z,21.38
2023-05-15T05:35:04.086Z,21.55
2023-05-15T05:37:30.666Z,21.70
2023-05-15T05:39:57.173Z,21.82
2023-05-15T05:42:23.722Z,21.93
2023-05-15T05:44:50.432Z,22.05
2023-05-15T05:47:17.020Z,22.11
2023-05-15T05:49:43.633Z,22.23
2023-05-15T05:52:10.332Z,22.37
2023-05-15T05:54:37.109Z,22.51
2023-05-15T05:57:03.674Z,22.61
2023-05-15T05:59:30.605Z,22.72
2023-05-15T06:01:57.336Z,22.87
2023-05-15T06:04:24.064Z,22.97
2023-05-15T06:06:50.758Z,23.11
2023-05-15T06:09:18.032Z,23.27
2023-05-15T06:11:45.559Z,23.38
2023-05-15T06:14:12.198Z,23.52
2023-05-15T06:16:38.724Z,23.60
2023-05-15T06:19:05.587Z,23.66
2023-05-15T06:21:32.164Z,23.71
2023-05-15T06:23:58.683Z,23.84
2023-05-15T06:26:26.223Z,24.03
2023-05-15T06:28:52.779Z,24.13
2023-05-15T06:31:19.393Z,24.33
2023-05-15T06:33:45.974Z,24.56
2023-05-15T06:36:12.494Z,24.65
2023-05-15T06:38:39.618Z,24.77
2023-05-15T06:41:06.161Z,24.88
2023-05-15T06:43:32.656Z,25.06
2023-05-15T06:45:59.250Z,25.16
2023-05-15T06:48:25.996Z,25.12
2023-05-15T06:50:52.808Z,25.15
2023-05-15T06:53:20.970Z,25.22
2023-05-15T06:55:47.520Z,25.37
2023-05-15T06:58:14.112Z,25.49
2023-05-15T07:00:40.694Z,25.63
2023-05-15T07:03:07.242Z,25.74
2023-05-15T07:05:33.844Z,25.85
2023-05-15T07:08:00.571Z,25.97
2023-05-15T07:10:27.298Z,26.05
2023-05-15T07:12:54.564Z,26.18
2023-05-15T07:15:21.100Z,26.34
2023-05-15T07:17:47.746Z,26.51
2023-05-15T07:20:14.340Z,26.66
2023-05-15T07:22:52.015Z,26.87
2023-05-15T07:25:23.152Z,27.19
2023-05-15T07:27:49.903Z,27.48
2023-05-15T07:30:16.629Z,27.72
2023-05-15T07:32:43.346Z,27.94
2023-05-15T07:35:11.550Z,28.08
2023-05-15T07:37:38.535Z,28.10
2023-05-15T07:40:05.841Z,28.20
2023-05-15T07:42:32.392Z,28.57
2023-05-15T07:44:58.891Z,28.97
2023-05-15T07:47:25.586Z,29.19
2023-05-15T07:49:52.160Z,29.35
2023-05-15T07:52:19.292Z,29.51
2023-05-15T07:54:45.794Z,29.59
2023-05-15T07:57:13.089Z,29.71
2023-05-15T07:59:39.722Z,29.81
2023-05-15T08:02:06.927Z,29.82
2023-05-15T08:04:33.673Z,29.88
2023-05-15T08:07:00.432Z,29.83
2023-05-15T08:09:26.960Z,29.81
2023-05-15T08:11:55.925Z,29.80
2023-05-15T08:14:22.519Z,29.63
2023-05-15T08:16:49.959Z,29.49
2023-05-15T08:19:16.574Z,29.30
2023-05-15T08:21:43.195Z,29.20
2023-05-15T08:24:09.783Z,29.13
2023-05-15T08:26:36.380Z,29.08
2023-05-15T08:29:02.977Z,29.06
2023-05-15T08:31:29.681Z,28.99
2023-05-15T08:33:56.194Z,28.90
2023-05-15T08:36:22.938Z,28.85
2023-05-15T08:38:49.698Z,28.79
2023-05-15T08:41:38.666Z,28.82
2023-05-15T08:44:09.219Z,28.76
2023-05-15T08:46:36.030Z,28.45
2023-05-15T08:49:15.859Z,28.58
2023-05-15T08:51:42.715Z,28.48
2023-05-15T08:54:10.112Z,28.50
2023-05-15T08:56:36.677Z,28.35
2023-05-15T08:59:04.208Z,28.25
2023-05-15T09:01:31.067Z,28.18
2023-05-15T09:03:57.656Z,28.30
2023-05-15T09:06:24.980Z,28.35
2023-05-15T09:08:52.253Z,28.24
2023-05-15T09:11:18.815Z,28.19
2023-05-15T09:13:45.361Z,28.11
2023-05-15T09:16:11.879Z,27.89
2023-05-15T09:18:39.072Z,27.76
2023-05-15T09:21:25.403Z,28.04
2023-05-15T09:23:52.938Z,27.84
2023-05-15T09:26:19.529Z,27.76
2023-05-15T09:28:46.451Z,27.71
2023-05-15T09:31:13.483Z,27.60
2023-05-15T09:33:41.589Z,27.51
2023-05-15T09:36:09.409Z,27.61
2023-05-15T09:38:42.367Z,27.73
2023-05-15T09:41:09.440Z,27.60
2023-05-15T09:43:40.642Z,27.87
2023-05-15T09:46:13.106Z,27.83
2023-05-15T09:48:39.879Z,27.96
2023-05-15T09:51:14.735Z,28.18
2023-05-15T09:53:41.801Z,28.12
2023-05-15T09:56:10.416Z,28.25
2023-05-15T09:58:37.025Z,28.36
2023-05-15T10:01:04.253Z,28.50
2023-05-15T10:03:30.893Z,28.53
2023-05-15T10:06:01.635Z,28.63
2023-05-15T10:08:29.189Z,28.60
2023-05-15T10:10:59.872Z,28.71
2023-05-15T10:13:26.695Z,28.82
2023-05-15T10:15:53.961Z,28.90
2023-05-15T10:18:22.184Z,29.08
2023-05-15T10:20:49.361Z,29.27
2023-05-15T10:23:17.890Z,29.36
2023-05-15T10:25:56.313Z,29.58
2023-05-15T10:28:23.124Z,29.29
2023-05-15T10:30:49.684Z,29.37
2023-05-15T10:33:16.260Z,29.65
2023-05-15T10:35:43.363Z,29.96
2023-05-15T10:38:10.776Z,30.11
2023-05-15T10:40:39.320Z,30.13
2023-05-15T10:43:06.234Z,30.31
2023-05-15T10:45:33.393Z,30.29
2023-05-15T10:48:00.708Z,30.48
2023-05-15T10:50:27.619Z,30.56
2023-05-15T10:52:55.314Z,30.64
2023-05-15T10:55:22.484Z,30.59
2023-05-15T10:57:49.016Z,30.51
2023-05-15T11:00:27.074Z,30.82
2023-05-15T11:02:56.559Z,30.66
2023-05-15T11:05:23.736Z,30.59
2023-05-15T11:08:15.333Z,30.79
2023-05-15T11:10:42.003Z,30.46
2023-05-15T11:13:08.699Z,30.40
2023-05-15T11:15:43.253Z,30.38
2023-05-15T11:18:09.915Z,30.16
2023-05-15T11:20:43.271Z,30.19
2023-05-15T11:23:09.990Z,29.90
2023-05-15T11:25:37.130Z,29.81
2023-05-15T11:28:04.748Z,29.77
2023-05-15T11:30:35.771Z,29.80
2023-05-15T11:33:08.604Z,29.65
2023-05-15T11:35:43.255Z,29.50
2023-05-15T11:38:09.721Z,29.56
2023-05-15T11:40:49.797Z,29.72
2023-05-15T11:43:25.130Z,29.86
2023-05-15T11:45:56.010Z,29.74
2023-05-15T11:48:23.092Z,30.45
2023-05-15T11:50:49.715Z,29.90
2023-05-15T11:53:16.683Z,29.77
2023-05-15T11:55:44.137Z,29.86
2023-05-15T11:58:13.069Z,30.11
2023-05-15T12:00:40.521Z,30.27
2023-05-15T12:03:11.759Z,30.53
2023-05-15T12:05:53.617Z,30.63
2023-05-15T12:08:23.972Z,30.68
2023-05-15T12:10:50.650Z,30.68
2023-05-15T12:13:18.427Z,30.65
2023-05-15T12:15:46.296Z,30.95
2023-05-15T12:18:13.730Z,31.06
2023-05-15T12:20:44.914Z,31.47
2023-05-15T12:23:15.346Z,32.12
2023-05-15T12:25:43.850Z,33.18
2023-05-15T12:28:11.832Z,33.83
2023-05-15T12:30:38.474Z,34.66
2023-05-15T12:33:07.121Z,35.84
2023-05-15T12:35:34.724Z,36.69
2023-05-15T12:38:05.042Z,37.32
2023-05-15T12:40:35.749Z,38.22
2023-05-15T12:43:08.864Z,39.21
2023-05-15T12:45:38.428Z,40.12
2023-05-15T12:48:05.912Z,40.88
2023-05-15T12:50:33.796Z,41.54
2023-05-15T12:53:05.421Z,41.79
2023-05-15T12:55:34.064Z,40.51
2023-05-15T12:58:02.325Z,39.94
2023-05-15T13:00:29.934Z,39.25
2023-05-15T13:02:58.067Z,39.05
2023-05-15T13:05:25.717Z,38.48
2023-05-15T13:07:52.624Z,38.03
2023-05-15T13:10:23.738Z,37.65
2023-05-15T13:12:52.166Z,36.97
2023-05-15T13:15:45.104Z,36.69
2023-05-15T13:18:14.473Z,36.25
2023-05-15T13:20:43.552Z,36.17
2023-05-15T13:23:13.851Z,36.22
2023-05-15T13:25:41.468Z,35.70
2023-05-15T13:28:10.543Z,35.35
2023-05-15T13:30:41.902Z,34.93
2023-05-15T13:33:10.949Z,34.83
2023-05-15T13:35:38.381Z,34.84
2023-05-15T13:38:12.193Z,34.60
2023-05-15T13:40:39.196Z,34.62
2023-05-15T13:43:08.657Z,34.58
2023-05-15T13:45:35.224Z,34.64
2023-05-15T13:48:01.858Z,34.41
2023-05-15T13:50:28.505Z,34.29
2023-05-15T13:52:55.148Z,34.14
2023-05-15T13:55:23.172Z,33.85
2023-05-15T13:57:57.601Z,33.47
2023-05-15T14:00:24.329Z,33.26
2023-05-15T14:02:51.088Z,32.88
2023-05-15T14:05:17.835Z,32.32
2023-05-15T14:07:44.918Z,31.74
2023-05-15T14:10:11.873Z,31.35
2023-05-15T14:12:38.849Z,30.98
2023-05-15T14:15:05.966Z,30.70
2023-05-15T14:17:32.648Z,30.68
2023-05-15T14:19:59.258Z,30.53
2023-05-15T14:22:25.858Z,30.44
2023-05-15T14:24:55.580Z,30.30
2023-05-15T14:27:22.450Z,30.02
2023-05-15T14:29:49.556Z,30.02
2023-05-15T14:32:16.647Z,30.10
2023-05-15T14:34:43.671Z,30.08
2023-05-15T14:37:10.352Z,30.08
2023-05-15T14:39:36.931Z,30.01
2023-05-15T14:42:03.722Z,29.81
2023-05-15T14:44:30.333Z,29.72
2023-05-15T14:47:11.097Z,29.97
2023-05-15T14:49:37.816Z,29.83
2023-05-15T14:52:07.137Z,29.69
2023-05-15T14:54:33.966Z,29.52
2023-05-15T14:57:00.533Z,29.40
2023-05-15T14:59:27.601Z,29.27
2023-05-15T15:01:54.262Z,29.16
2023-05-15T15:04:21.024Z,29.07
2023-05-15T15:06:48.079Z,29.04
2023-05-15T15:09:14.657Z,28.95
2023-05-15T15:11:41.279Z,28.90
2023-05-15T15:14:07.926Z,28.82
2023-05-15T15:16:34.544Z,28.78
2023-05-15T15:19:01.239Z,28.70
2023-05-15T15:21:27.868Z,28.74
2023-05-15T15:23:55.205Z,28.78
2023-05-15T15:26:21.818Z,28.89
2023-05-15T15:28:48.767Z,28.98
2023-05-15T15:31:15.814Z,29.04
2023-05-15T15:33:42.428Z,28.84
2023-05-15T15:36:09.074Z,28.86
2023-05-15T15:38:36.019Z,28.79
2023-05-15T15:41:03.675Z,28.74
2023-05-15T15:43:30.346Z,28.53
2023-05-15T15:45:56.976Z,28.40
2023-05-15T15:48:23.740Z,28.19
2023-05-15T15:50:51.706Z,28.13
2023-05-15T15:53:18.491Z,28.05
2023-05-15T15:55:47.043Z,28.00
2023-05-15T15:58:13.951Z,27.98
2023-05-15T16:00:41.260Z,27.95
2023-05-15T16:03:08.026Z,27.92
2023-05-15T16:05:34.835Z,27.93
2023-05-15T16:08:01.426Z,27.89
2023-05-15T16:10:28.045Z,27.83
2023-05-15T16:12:54.628Z,27.68
2023-05-15T16:15:23.676Z,27.45
2023-05-15T16:17:52.860Z,27.26
2023-05-15T16:20:20.146Z,27.04
2023-05-15T16:22:46.767Z,26.96
2023-05-15T16:25:13.401Z,26.82
2023-05-15T16:27:39.895Z,26.67
2023-05-15T16:30:07.173Z,26.68
2023-05-15T16:32:34.176Z,26.60
2023-05-15T16:35:00.872Z,26.52
2023-05-15T16:37:27.544Z,26.51
2023-05-15T16:39:54.084Z,26.45
2023-05-15T16:42:20.684Z,26.43
2023-05-15T16:44:47.420Z,26.37
2023-05-15T16:47:13.964Z,26.27
2023-05-15T16:49:43.320Z,26.23
2023-05-15T16:52:43.983Z,26.39
2023-05-15T16:55:13.729Z,26.29
2023-05-15T16:57:40.437Z,26.09
2023-05-15T17:00:20.979Z,26.14
2023-05-15T17:03:10.781Z,25.98
2023-05-15T17:05:48.568Z,25.82
2023-05-15T17:08:15.325Z,25.70
2023-05-15T17:10:41.960Z,25.43
2023-05-15T17:13:08.441Z,25.35
2023-05-15T17:15:35.080Z,24.85
2023-05-15T17:18:01.702Z,24.68
2023-05-15T17:20:28.928Z,24.80
2023-05-15T17:22:55.626Z,24.97
2023-05-15T17:25:22.313Z,24.90
2023-05-15T17:27:48.850Z,24.93
2023-05-15T17:30:15.655Z,24.93
2023-05-15T17:32:42.272Z,24.93
2023-05-15T17:35:09.228Z,24.99
2023-05-15T17:37:36.029Z,24.93
2023-05-15T17:40:02.550Z,24.85
2023-05-15T17:42:29.079Z,24.86
2023-05-15T17:44:56.522Z,24.84
2023-05-15T17:47:23.279Z,24.75
2023-05-15T17:49:49.790Z,24.72
2023-05-15T17:52:16.390Z,24.74
2023-05-15T17:54:42.933Z,24.71
2023-05-15T17:57:09.489Z,24.73
2023-05-15T17:59:35.994Z,24.74
2023-05-15T18:02:02.774Z,24.70
2023-05-15T18:04:29.385Z,24.56
2023-05-15T18:06:56.129Z,24.44
2023-05-15T18:09:24.221Z,24.46
2023-05-15T18:11:51.247Z,24.51
2023-05-15T18:14:17.802Z,24.45
2023-05-15T18:16:44.351Z,24.39
2023-05-15T18:19:11.011Z,24.40
2023-05-15T18:21:38.117Z,24.37
2023-05-15T18:24:04.982Z,24.42
2023-05-15T18:26:31.473Z,24.36
2023-05-15T18:28:58.049Z,24.33
2023-05-15T18:31:24.651Z,24.31
2023-05-15T18:33:51.242Z,24.15
2023-05-15T18:36:18.249Z,24.08
2023-05-15T18:38:45.275Z,24.04
2023-05-15T18:41:11.828Z,23.94
2023-05-15T18:43:38.368Z,23.95
2023-05-15T18:46:05.668Z,23.92
2023-05-15T18:48:32.186Z,23.95
2023-05-15T18:50:58.724Z,23.84
2023-05-15T18:53:25.515Z,23.84
2023-05-15T18:55:52.146Z,23.77
2023-05-15T18:58:18.630Z,23.86
2023-05-15T19:00:45.329Z,23.86
2023-05-15T19:03:12.105Z,23.76
2023-05-15T19:05:38.700Z,23.79
2023-05-15T19:08:05.309Z,23.67
2023-05-15T19:10:31.863Z,23.60
2023-05-15T19:12:58.580Z,23.58
2023-05-15T19:15:25.498Z,23.57
2023-05-15T19:17:52.341Z,23.56
2023-05-15T19:20:19.041Z,23.58
2023-05-15T19:22:46.267Z,23.56
2023-05-15T19:25:13.001Z,23.55
2023-05-15T19:27:39.693Z,23.52
2023-05-15T19:30:07.167Z,23.51
2023-05-15T19:32:34.332Z,23.48
2023-05-15T19:35:00.996Z,23.42
2023-05-15T19:37:27.519Z,23.47
2023-05-15T19:39:54.178Z,23.44
2023-05-15T19:42:20.900Z,23.43
2023-05-15T19:44:47.402Z,23.46
2023-05-15T19:47:35.497Z,23.65
2023-05-15T19:50:02.131Z,23.37
2023-05-15T19:52:29.573Z,23.37
2023-05-15T19:54:56.092Z,23.33
2023-05-15T19:57:22.630Z,23.33
2023-05-15T19:59:49.422Z,23.29
2023-05-15T20:02:15.924Z,23.27
2023-05-15T20:04:42.497Z,23.26
2023-05-15T20:07:09.166Z,23.24
2023-05-15T20:09:37.324Z,23.03
2023-05-15T20:12:06.356Z,22.98
2023-05-15T20:14:34.226Z,22.91
2023-05-15T20:17:00.792Z,22.85
2023-05-15T20:19:27.874Z,22.78
2023-05-15T20:21:54.453Z,22.76
2023-05-15T20:24:25.649Z,23.03
2023-05-15T20:26:52.211Z,23.57
2023-05-15T20:29:18.785Z,23.05
2023-05-15T20:31:45.684Z,23.03
2023-05-15T20:34:14.902Z,22.96
2023-05-15T20:36:41.434Z,22.87
2023-05-15T20:39:08.594Z,22.84
2023-05-15T20:41:35.481Z,22.77
2023-05-15T20:44:02.096Z,22.75
2023-05-15T20:46:30.185Z,22.76
2023-05-15T20:48:57.575Z,22.76
2023-05-15T20:51:24.149Z,22.81
2023-05-15T20:53:50.955Z,22.85
2023-05-15T20:56:17.530Z,22.88
2023-05-15T20:58:44.378Z,22.83
2023-05-15T21:01:10.949Z,22.85
2023-05-15T21:03:37.511Z,22.85
2023-05-15T21:06:04.385Z,22.76
2023-05-15T21:08:30.954Z,22.77
2023-05-15T21:10:57.499Z,22.68
2023-05-15T21:13:24.235Z,22.65
2023-05-15T21:15:50.839Z,22.69
2023-05-15T21:18:18.786Z,22.71
2023-05-15T21:20:45.409Z,22.69
2023-05-15T21:23:11.894Z,22.71
2023-05-15T21:25:38.414Z,22.67
2023-05-15T21:28:04.935Z,22.61
2023-05-15T21:30:31.677Z,22.56
2023-05-15T21:32:58.216Z,22.53
2023-05-15T21:35:25.445Z,22.58
2023-05-15T21:37:51.989Z,22.58
2023-05-15T21:40:18.596Z,22.53
2023-05-15T21:42:45.165Z,22.53
2023-05-15T21:45:11.725Z,22.56
2023-05-15T21:47:38.327Z,22.67
2023-05-15T21:50:06.143Z,22.68
2023-05-15T21:52:32.993Z,22.56
2023-05-15T21:54:59.502Z,22.56
2023-05-15T21:57:26.028Z,22.54
2023-05-15T21:59:52.576Z,22.50
2023-05-15T22:02:19.096Z,22.52
2023-05-15T22:04:45.662Z,22.53
2023-05-15T22:07:14.800Z,22.55
2023-05-15T22:09:41.346Z,22.62
2023-05-15T22:12:08.182Z,22.58
2023-05-15T22:14:35.100Z,22.63
2023-05-15T22:17:01.941Z,22.61
2023-05-15T22:19:33.112Z,22.65
2023-05-15T22:22:01.101Z,22.62
2023-05-15T22:24:27.626Z,22.72
2023-05-15T22:26:54.213Z,22.70
2023-05-15T22:29:20.734Z,22.66
2023-05-15T22:31:47.371Z,22.59
2023-05-15T22:34:13.950Z,22.53
2023-05-15T22:36:41.146Z,22.47
2023-05-15T22:39:08.034Z,22.49
2023-05-15T22:41:34.600Z,22.39
2023-05-15T22:44:02.102Z,22.34
2023-05-15T22:46:28.664Z,22.31
2023-05-15T22:48:55.216Z,22.26
2023-05-15T22:51:22.221Z,22.25
2023-05-15T22:53:48.802Z,22.26
2023-05-15T22:56:15.306Z,22.19
2023-05-15T22:58:41.872Z,22.19
2023-05-15T23:01:09.129Z,22.13
2023-05-15T23:03:35.733Z,22.04
2023-05-15T23:06:02.264Z,22.05
2023-05-15T23:08:28.794Z,22.02
2023-05-15T23:10:56.222Z,22.00
2023-05-15T23:13:22.817Z,21.96
2023-05-15T23:15:49.392Z,21.96
2023-05-15T23:18:17.027Z,21.93
2023-05-15T23:20:43.599Z,21.87
2023-05-15T23:23:10.085Z,21.87
2023-05-15T23:25:36.639Z,21.86
2023-05-15T23:28:03.427Z,21.83
2023-05-15T23:30:30.079Z,21.70
2023-05-15T23:32:57.102Z,21.66
2023-05-15T23:35:23.692Z,21.67
2023-05-15T23:37:50.230Z,21.69
2023-05-15T23:40:16.778Z,21.63
2023-05-15T23:42:43.270Z,21.70
2023-05-15T23:45:10.462Z,21.65
2023-05-15T23:47:37.039Z,21.63
2023-05-15T23:50:03.815Z,21.65
2023-05-15T23:52:30.313Z,21.66
2023-05-15T23:54:57.324Z,21.62
2023-05-15T23:57:23.825Z,21.55
2023-05-15T23:59:50.850Z,21.51
